Time;durP1;ratioP1;P1;durP2;ratioP2;P2;SDS_P1;SDS_P2;PMS_P1;PMS_P2;Temp;Humidity;BMP_temperature;BMP_pressure;BME280_temperature;BME280_humidity;BME280_pressure;Samples;Min_cycle;Max_cycle;Signal;HPM_P1;HPM_P2
2022/06/09 00:01:13;;;;;;;26.80;18.40;;;;;;;17.08;88.23;98527.06;8519587;27;20047;-73
2022/06/09 00:05:14;;;;;;;27.35;18.58;;;;;;;17.05;88.29;98525.09;8501340;27;20545;-72
2022/06/09 00:09:18;;;;;;;29.10;20.30;;;;;;;17.04;88.54;98523.50;8462984;27;20039;-72
2022/06/09 00:13:18;;;;;;;29.38;20.63;;;;;;;17.02;88.96;98514.13;8528450;27;20050;-72
2022/06/09 00:17:19;;;;;;;28.85;20.35;;;;;;;17.01;89.15;98502.44;8516597;27;20042;-73
2022/06/09 00:21:22;;;;;;;26.15;19.70;;;;;;;17.00;89.11;98506.31;8503399;27;20552;-73
2022/06/09 00:25:24;;;;;;;29.65;21.50;;;;;;;16.98;89.33;98492.22;8502305;27;20105;-72
2022/06/09 00:29:24;;;;;;;30.55;20.73;;;;;;;16.98;89.52;98502.34;8478579;27;20051;-72
2022/06/09 00:33:25;;;;;;;29.50;19.67;;;;;;;16.96;89.52;98500.00;8516883;27;20412;-72
2022/06/09 00:37:26;;;;;;;29.30;19.20;;;;;;;16.94;90.22;98496.06;8521416;27;20046;-72
2022/06/09 00:41:28;;;;;;;30.23;20.00;;;;;;;16.91;90.04;98492.13;8480649;27;20051;-72
2022/06/09 00:45:42;;;;;;;29.85;19.30;;;;;;;16.89;90.62;98484.31;8520119;27;20375;-71
2022/06/09 00:49:48;;;;;;;27.50;18.83;;;;;;;16.89;90.60;98483.53;8507646;27;20058;-72
2022/06/09 00:53:53;;;;;;;26.48;19.90;;;;;;;16.87;90.69;98477.63;8494658;27;20428;-72
2022/06/09 00:58:10;;;;;;;24.40;18.95;;;;;;;16.83;91.35;98468.59;8508886;27;20054;-72
2022/06/09 01:02:13;;;;;;;24.27;17.80;;;;;;;16.82;91.27;98477.94;8517090;27;20094;-73
2022/06/09 01:06:17;;;;;;;26.75;17.70;;;;;;;16.75;91.02;98473.19;8490959;27;20043;-72
2022/06/09 01:10:18;;;;;;;21.90;15.63;;;;;;;16.71;90.96;98466.06;8478456;27;20051;-72
2022/06/09 01:14:23;;;;;;;20.77;15.85;;;;;;;16.63;91.12;98464.38;8490925;27;20047;-72
2022/06/09 01:18:54;;;;;;;21.00;15.15;;;;;;;16.54;91.22;98463.81;8495859;27;20077;-71
2022/06/09 01:23:31;;;;;;;20.95;14.95;;;;;;;16.42;91.37;98459.31;8315305;28;20041;-72
2022/06/09 01:28:00;;;;;;;16.80;12.98;;;;;;;16.26;91.45;98451.25;8321997;28;20080;-72
2022/06/09 01:32:09;;;;;;;16.85;12.85;;;;;;;16.15;91.81;98447.53;8240508;28;20046;-71
2022/06/09 01:36:23;;;;;;;17.25;13.02;;;;;;;16.14;91.24;98451.41;8248999;28;20086;-72
2022/06/09 01:40:25;;;;;;;15.93;12.55;;;;;;;16.12;90.99;98451.00;8246902;28;20561;-71
2022/06/09 01:44:26;;;;;;;16.95;11.48;;;;;;;16.07;91.16;98451.28;8248881;28;20043;-73
2022/06/09 01:48:28;;;;;;;16.00;11.65;;;;;;;16.06;90.70;98441.53;8252346;28;20061;-71
2022/06/09 01:52:29;;;;;;;15.95;12.25;;;;;;;16.01;90.73;98439.13;8256379;28;20054;-73
2022/06/09 01:56:43;;;;;;;15.82;11.20;;;;;;;15.93;90.50;98437.38;8251440;28;20065;-72
2022/06/09 02:00:44;;;;;;;20.75;13.32;;;;;;;15.84;90.46;98434.91;8403675;28;20044;-72
2022/06/09 02:04:48;;;;;;;17.02;12.38;;;;;;;15.81;90.15;98432.13;8421509;28;20044;-72
2022/06/09 02:08:49;;;;;;;16.50;11.85;;;;;;;15.75;89.99;98430.81;8454490;27;20122;-72
2022/06/09 02:12:50;;;;;;;21.20;14.20;;;;;;;15.69;90.06;98426.81;8484878;27;20054;-72
2022/06/09 02:16:52;;;;;;;18.20;13.90;;;;;;;15.63;90.20;98429.81;8507206;27;20051;-71
2022/06/09 02:21:09;;;;;;;19.58;15.40;;;;;;;15.62;90.28;98433.69;8516710;27;20515;-73
2022/06/09 02:25:11;;;;;;;20.85;15.80;;;;;;;15.61;90.10;98448.44;8508853;27;20050;-72
2022/06/09 02:29:14;;;;;;;23.48;16.38;;;;;;;15.59;90.10;98439.84;8495280;27;20050;-72
2022/06/09 02:33:15;;;;;;;20.90;15.82;;;;;;;15.57;90.21;98442.13;8521477;27;20103;-71
2022/06/09 02:37:16;;;;;;;21.20;16.13;;;;;;;15.54;90.17;98442.84;8516920;27;20047;-73
2022/06/09 02:41:17;;;;;;;23.65;16.60;;;;;;;15.52;90.26;98445.13;8470528;27;20058;-72
2022/06/09 02:45:18;;;;;;;21.67;15.93;;;;;;;15.52;90.09;98456.03;8514493;27;20043;-73
2022/06/09 02:49:21;;;;;;;24.70;15.32;;;;;;;15.51;90.33;98465.31;8500022;27;20469;-72
2022/06/09 02:53:23;;;;;;;26.05;15.63;;;;;;;15.55;90.34;98482.50;8528125;27;20116;-72
2022/06/09 02:57:24;;;;;;;24.60;19.05;;;;;;;15.67;90.45;98478.09;8487361;27;20038;-73
2022/06/09 03:01:26;;;;;;;32.78;22.13;;;;;;;15.87;91.24;98493.28;8481527;27;20462;-72
2022/06/09 03:05:31;;;;;;;31.58;22.65;;;;;;;16.07;91.93;98502.25;8510346;27;20058;-72
2022/06/09 03:09:32;;;;;;;32.20;22.25;;;;;;;16.26;92.94;98505.75;8508304;27;20096;-72
2022/06/09 03:13:33;;;;;;;29.70;21.67;;;;;;;16.38;93.16;98497.41;8512785;27;20130;-72
2022/06/09 03:17:35;;;;;;;36.20;22.77;;;;;;;16.49;93.62;98497.63;8508695;27;20039;-73
2022/06/09 03:21:39;;;;;;;32.92;23.20;;;;;;;16.57;94.28;98503.97;8511789;27;20112;-72
2022/06/09 03:25:42;;;;;;;30.73;22.52;;;;;;;16.63;94.34;98502.53;8484166;27;20054;-72
2022/06/09 03:29:43;;;;;;;33.88;23.85;;;;;;;16.68;94.58;98505.75;8520845;27;20451;-71
2022/06/09 03:33:44;;;;;;;32.88;23.52;;;;;;;16.73;95.00;98496.50;8504119;27;20057;-71
2022/06/09 03:37:45;;;;;;;40.08;24.92;;;;;;;16.75;95.48;98499.66;8514226;27;20047;-71
2022/06/09 03:41:46;;;;;;;34.08;25.70;;;;;;;16.77;96.02;98502.78;8525449;27;20511;-72
2022/06/09 03:45:47;;;;;;;36.55;25.83;;;;;;;16.77;96.72;98497.31;8507343;27;20042;-71
2022/06/09 03:49:48;;;;;;;35.65;25.90;;;;;;;16.76;96.91;98490.31;8512501;27;20415;-72
2022/06/09 03:53:50;;;;;;;36.97;27.00;;;;;;;16.79;97.42;98489.59;8465661;27;20043;-72
2022/06/09 03:57:51;;;;;;;35.40;25.48;;;;;;;16.79;97.68;98495.03;8519547;27;20133;-72
2022/06/09 04:01:52;;;;;;;36.35;25.95;;;;;;;16.80;97.89;98499.34;8523313;27;20400;-72
2022/06/09 04:05:53;;;;;;;41.55;26.90;;;;;;;16.81;98.18;98498.19;8519480;27;20046;-72
2022/06/09 04:09:54;;;;;;;38.70;25.50;;;;;;;16.83;98.13;98506.78;8516137;27;20059;-71
2022/06/09 04:13:55;;;;;;;33.20;24.85;;;;;;;16.86;97.69;98506.06;8516181;27;20066;-71
2022/06/09 04:17:55;;;;;;;34.33;24.88;;;;;;;16.83;98.42;98506.78;8473723;27;20066;-72
2022/06/09 04:21:57;;;;;;;35.03;24.75;;;;;;;16.83;98.45;98501.34;8528903;27;20055;-72
2022/06/09 04:25:58;;;;;;;36.22;25.00;;;;;;;16.78;99.74;98498.91;8514266;27;20127;-72
2022/06/09 04:30:02;;;;;;;35.90;24.25;;;;;;;16.77;99.73;98508.25;8508799;27;20125;-72
2022/06/09 04:34:03;;;;;;;34.40;23.83;;;;;;;16.83;99.24;98501.34;8480869;27;20125;-72
2022/06/09 04:38:06;;;;;;;34.65;24.38;;;;;;;16.85;99.43;98499.84;8501105;27;20054;-72
2022/06/09 04:42:08;;;;;;;32.45;23.67;;;;;;;16.89;99.15;98494.44;8473863;27;20091;-73
2022/06/09 04:46:10;;;;;;;33.40;22.40;;;;;;;16.89;99.38;98494.44;8509744;27;20046;-72
2022/06/09 04:50:12;;;;;;;34.42;22.80;;;;;;;16.93;98.73;98506.19;8519176;27;20091;-72
2022/06/09 04:54:13;;;;;;;29.42;22.15;;;;;;;16.95;99.03;98506.59;8516101;27;20051;-72
2022/06/09 04:58:14;;;;;;;33.63;24.10;;;;;;;16.94;99.27;98510.47;8518136;27;20092;-72
2022/06/09 05:02:15;;;;;;;30.58;23.33;;;;;;;16.95;99.03;98509.34;8493098;27;20471;-72
2022/06/09 05:06:21;;;;;;;33.42;23.95;;;;;;;16.96;99.44;98505.47;8506309;27;20054;-73
2022/06/09 05:10:22;;;;;;;36.95;23.88;;;;;;;16.97;100.00;98512.50;8501036;27;20127;-73
2022/06/09 05:14:23;;;;;;;40.22;23.17;;;;;;;17.04;100.00;98506.34;8514689;27;20502;-72
2022/06/09 05:18:29;;;;;;;35.10;23.75;;;;;;;17.14;100.00;98514.69;8520857;27;20091;-72
2022/06/09 05:22:30;;;;;;;32.83;22.77;;;;;;;17.28;99.43;98512.22;8477072;27;20061;-74
2022/06/09 05:26:31;;;;;;;34.03;21.90;;;;;;;17.34;99.07;98509.97;8509711;27;20051;-73
2022/06/09 05:30:32;;;;;;;30.35;22.02;;;;;;;17.43;98.58;98523.31;8507207;27;20066;-73
2022/06/09 05:34:33;;;;;;;31.42;22.92;;;;;;;17.47;98.54;98529.63;8502354;27;20047;-73
2022/06/09 05:47:13;;;;;;;35.75;22.13;;;;;;;17.50;98.42;98545.28;8495154;27;20051;-74
2022/06/09 05:51:16;;;;;;;31.65;22.90;;;;;;;17.52;98.31;98543.75;8513075;27;20397;-73
2022/06/09 05:55:17;;;;;;;30.60;21.90;;;;;;;17.58;97.73;98536.03;8527730;27;20051;-73
2022/06/09 05:59:18;;;;;;;42.20;23.13;;;;;;;17.61;97.68;98538.03;8507451;27;20561;-73
2022/06/09 06:03:19;;;;;;;29.52;21.58;;;;;;;17.71;97.39;98540.91;8526849;27;20047;-72
2022/06/09 06:07:20;;;;;;;30.73;22.30;;;;;;;17.86;97.27;98547.38;8535472;27;20050;-73
2022/06/09 06:11:21;;;;;;;28.33;21.40;;;;;;;18.06;96.98;98554.28;8488314;27;20567;-72
2022/06/09 06:15:22;;;;;;;33.20;22.17;;;;;;;18.21;96.97;98557.19;8515642;27;20055;-74
2022/06/09 06:19:24;;;;;;;32.20;21.30;;;;;;;18.32;96.72;98558.09;8489798;27;20096;-72
2022/06/09 06:23:26;;;;;;;27.40;20.95;;;;;;;18.35;97.20;98562.81;8480279;27;20137;-72
2022/06/09 06:27:26;;;;;;;29.15;19.75;;;;;;;18.39;97.09;98563.66;8515062;27;21552;-73
2022/06/09 06:31:28;;;;;;;29.00;21.20;;;;;;;18.38;97.04;98556.59;8487643;27;20485;-72
2022/06/09 06:35:28;;;;;;;35.78;21.13;;;;;;;18.35;96.28;98563.59;8529223;27;20053;-72
2022/06/09 06:39:30;;;;;;;26.52;18.38;;;;;;;18.41;95.78;98561.31;8492955;27;20053;-73
2022/06/09 06:43:31;;;;;;;30.73;19.73;;;;;;;18.56;95.62;98568.53;8531874;27;20042;-73
2022/06/09 06:47:32;;;;;;;26.92;19.25;;;;;;;18.73;95.17;98573.41;8529669;27;20100;-73
2022/06/09 06:51:32;;;;;;;25.92;17.60;;;;;;;18.75;95.14;98565.63;8496631;27;20046;-72
2022/06/09 06:55:34;;;;;;;25.80;15.98;;;;;;;18.87;94.31;98568.09;8494877;27;20043;-72
2022/06/09 06:59:35;;;;;;;22.60;15.93;;;;;;;18.97;93.59;98572.88;8526251;27;20099;-73
2022/06/09 07:03:36;;;;;;;21.88;17.23;;;;;;;19.09;93.28;98576.50;8524517;27;20043;-72
2022/06/09 07:07:38;;;;;;;23.58;17.00;;;;;;;19.17;92.69;98575.41;8529622;27;20046;-74
2022/06/09 07:11:40;;;;;;;19.83;16.02;;;;;;;19.26;91.91;98573.91;8518963;27;20047;-72
2022/06/09 07:15:40;;;;;;;20.85;15.38;;;;;;;19.47;89.94;98573.31;8514351;27;20527;-74
2022/06/09 07:19:41;;;;;;;18.83;14.48;;;;;;;19.71;88.02;98578.19;8483899;27;20051;-73
2022/06/09 07:23:42;;;;;;;23.33;14.85;;;;;;;19.85;86.95;98582.19;8531309;27;20079;-72
2022/06/09 07:27:44;;;;;;;19.23;14.70;;;;;;;20.17;86.24;98577.66;8466606;27;20076;-72
2022/06/09 07:31:44;;;;;;;21.13;15.75;;;;;;;20.42;85.16;98588.75;8524637;27;20043;-72
2022/06/09 07:35:46;;;;;;;20.55;15.13;;;;;;;20.47;84.44;98591.91;8484569;27;20062;-72
2022/06/09 07:39:46;;;;;;;17.73;14.57;;;;;;;20.50;84.16;98591.16;8476443;27;20082;-72
2022/06/09 07:43:48;;;;;;;19.67;14.30;;;;;;;20.72;82.96;98592.00;8525658;27;20051;-73
2022/06/09 07:47:49;;;;;;;21.00;13.30;;;;;;;20.80;79.81;98592.78;8525856;27;20051;-73
2022/06/09 07:51:50;;;;;;;19.60;13.43;;;;;;;20.76;79.14;98594.75;8486260;27;20476;-72
2022/06/09 07:55:51;;;;;;;22.52;14.68;;;;;;;20.81;80.08;98588.88;8525004;27;20081;-74
2022/06/09 07:59:52;;;;;;;19.83;14.57;;;;;;;20.96;80.22;98595.94;8524423;27;20051;-74
2022/06/09 08:03:54;;;;;;;16.25;12.75;;;;;;;21.05;79.40;98593.59;8530095;27;20046;-74
2022/06/09 08:07:55;;;;;;;16.50;11.82;;;;;;;21.00;77.89;98591.25;8519682;27;20043;-72
2022/06/09 08:11:57;;;;;;;16.65;12.20;;;;;;;21.03;76.99;98601.47;8475730;27;20049;-73
2022/06/09 08:15:58;;;;;;;17.33;12.98;;;;;;;21.17;74.92;98601.50;8529699;27;20528;-73
2022/06/09 08:19:59;;;;;;;15.98;12.55;;;;;;;21.31;76.03;98601.50;8512999;27;20095;-74
2022/06/09 08:24:00;;;;;;;13.35;10.98;;;;;;;21.40;75.18;98604.66;8453804;27;20051;-73
2022/06/09 08:28:03;;;;;;;16.58;11.55;;;;;;;21.66;75.19;98603.47;8508073;27;20038;-73
2022/06/09 08:32:05;;;;;;;13.98;10.15;;;;;;;21.89;71.76;98605.78;8486806;27;20047;-72
2022/06/09 08:36:09;;;;;;;19.25;14.25;;;;;;;21.89;71.00;98603.03;8524235;27;20682;-73
2022/06/09 08:40:15;;;;;;;15.20;10.02;;;;;;;21.82;70.03;98597.56;8531050;27;20051;-73
2022/06/09 08:44:43;;;;;;;12.85;9.60;;;;;;;21.84;69.49;98595.19;8497240;27;20046;-73
2022/06/09 08:48:45;;;;;;;9.82;7.90;;;;;;;21.98;70.84;98597.94;8374065;28;20507;-72
2022/06/09 08:52:48;;;;;;;11.30;7.68;;;;;;;22.03;70.51;98600.28;8377858;28;20088;-73
2022/06/09 08:56:50;;;;;;;12.80;8.98;;;;;;;22.10;70.55;98605.75;8391157;28;20048;-73
2022/06/09 09:01:05;;;;;;;13.00;10.05;;;;;;;22.08;71.71;98616.38;8386155;28;20041;-72
2022/06/09 09:05:12;;;;;;;13.45;11.10;;;;;;;21.87;72.43;98632.88;8383600;28;20044;-73
2022/06/09 09:09:13;;;;;;;15.70;10.85;;;;;;;21.71;73.22;98629.78;8375344;28;20045;-73
2022/06/09 09:13:24;;;;;;;12.88;8.43;;;;;;;21.45;73.90;98634.50;8390721;28;20083;-73
2022/06/09 09:17:42;;;;;;;11.65;9.05;;;;;;;21.38;74.17;98634.47;8373833;28;20483;-73
2022/06/09 09:21:51;;;;;;;12.93;10.15;;;;;;;21.42;73.80;98635.25;8390561;28;20078;-72
2022/06/09 09:26:10;;;;;;;17.40;10.95;;;;;;;21.49;73.89;98646.25;8465503;27;20050;-73
2022/06/09 09:30:22;;;;;;;17.88;11.23;;;;;;;21.74;73.60;98645.44;8488257;27;20039;-72
2022/06/09 09:34:35;;;;;;;16.42;11.20;;;;;;;22.09;72.66;98630.91;8494126;27;20054;-73
2022/06/09 09:38:46;;;;;;;13.88;9.30;;;;;;;22.52;71.28;98634.31;8498728;27;20043;-74
2022/06/09 09:42:48;;;;;;;17.23;11.63;;;;;;;22.81;70.35;98638.53;8498602;27;20130;-73
2022/06/09 09:46:52;;;;;;;15.27;10.57;;;;;;;23.13;69.62;98628.13;8498429;27;20100;-72
2022/06/09 09:51:00;;;;;;;15.77;11.52;;;;;;;23.66;67.57;98629.72;8502347;27;20040;-73
2022/06/09 09:55:02;;;;;;;18.08;11.45;;;;;;;23.63;66.34;98647.06;8534156;27;20553;-73
2022/06/09 09:59:17;;;;;;;15.93;10.52;;;;;;;23.39;67.29;98631.47;8512647;27;20484;-72
2022/06/09 10:12:11;;;;;;;13.38;9.98;;;;;;;23.60;64.72;98647.88;8522423;27;20039;-73
2022/06/09 10:16:12;;;;;;;16.58;9.77;;;;;;;23.69;64.09;98642.66;8502092;27;20358;-72
2022/06/09 10:20:35;;;;;;;11.65;8.68;;;;;;;23.78;63.46;98654.03;8497615;27;20099;-72
2022/06/09 10:24:35;;;;;;;10.55;8.35;;;;;;;23.86;63.11;98650.00;8493478;27;20607;-73
2022/06/09 10:28:39;;;;;;;10.43;7.30;;;;;;;24.05;61.66;98653.38;8488826;27;20046;-73
2022/06/09 10:32:40;;;;;;;9.50;7.80;;;;;;;23.82;60.81;98649.25;8516673;27;20051;-72
2022/06/09 10:37:16;;;;;;;9.43;7.85;;;;;;;23.79;61.31;98658.34;8521422;27;20470;-73
2022/06/09 10:41:30;;;;;;;8.95;7.07;;;;;;;24.10;59.28;98647.44;8393799;28;20074;-73
2022/06/09 10:45:56;;;;;;;9.45;7.82;;;;;;;24.48;58.81;98650.97;8383044;28;20056;-72
2022/06/09 10:59:18;;;;;;;9.02;7.95;;;;;;;25.31;55.50;98650.28;8385291;28;20084;-73
2022/06/09 11:03:24;;;;;;;7.50;6.70;;;;;;;25.39;54.41;98651.72;8371623;28;20053;-73
2022/06/09 11:07:42;;;;;;;8.00;7.18;;;;;;;25.06;54.87;98647.09;8375668;28;20135;-71
2022/06/09 11:11:54;;;;;;;9.40;6.60;;;;;;;24.95;56.34;98646.47;8378285;28;20078;-72
2022/06/09 11:16:04;;;;;;;8.82;7.15;;;;;;;24.85;55.25;98636.31;8392071;27;20062;-72
2022/06/09 11:20:44;;;;;;;9.00;7.00;;;;;;;25.07;55.90;98632.06;8524585;27;20050;-73
2022/06/09 11:25:23;;;;;;;6.95;6.25;;;;;;;25.40;56.58;98628.41;8529952;27;20091;-73
2022/06/09 11:29:41;;;;;;;10.23;8.25;;;;;;;25.13;57.30;98624.88;8361454;28;20052;-73
2022/06/09 11:34:07;;;;;;;12.43;9.27;;;;;;;24.79;58.54;98628.50;8358177;28;20136;-73
2022/06/09 11:38:34;;;;;;;12.93;7.88;;;;;;;25.03;59.14;98632.13;8345550;28;20041;-73
2022/06/09 11:43:06;;;;;;;14.30;8.60;;;;;;;24.77;59.72;98636.41;8293308;28;20050;-73
2022/06/09 11:47:16;;;;;;;9.98;7.68;;;;;;;24.44;61.65;98634.44;8213309;28;20501;-73
2022/06/09 11:51:21;;;;;;;9.75;7.55;;;;;;;24.29;60.17;98644.09;8229252;28;20531;-72
2022/06/09 11:59:57;;;;;;;8.85;7.00;;;;;;;24.56;60.16;98625.63;8229080;28;20047;-73
2022/06/09 12:04:10;;;;;;;9.35;7.90;;;;;;;25.35;59.80;98626.13;8252739;28;20075;-72
2022/06/09 12:08:34;;;;;;;18.70;15.30;;;;;;;25.32;59.15;98629.75;8359044;28;20045;-72
2022/06/09 12:12:38;;;;;;;19.95;15.88;;;;;;;24.66;60.25;98634.97;8258376;28;20061;-73
2022/06/09 12:16:57;;;;;;;15.90;13.55;;;;;;;24.16;61.84;98629.25;8257777;28;20054;-73
2022/06/09 12:21:04;;;;;;;13.60;12.20;;;;;;;23.85;61.50;98642.13;8292839;28;20074;-72
2022/06/09 12:25:17;;;;;;;17.88;14.10;;;;;;;23.46;63.23;98631.47;8382486;28;20048;-72
2022/06/09 12:29:20;;;;;;;22.58;17.23;;;;;;;23.04;65.64;98638.81;8390477;28;20522;-73
2022/06/09 12:33:33;;;;;;;22.08;17.15;;;;;;;22.81;67.46;98635.78;8392463;28;20068;-72
2022/06/09 12:37:35;;;;;;;24.33;18.75;;;;;;;22.62;69.06;98639.00;8389559;28;20086;-73
2022/06/09 12:41:42;;;;;;;23.25;18.95;;;;;;;22.42;70.17;98646.16;8379001;28;20089;-72
2022/06/09 12:45:43;;;;;;;26.85;18.88;;;;;;;22.39;70.72;98652.44;8393434;28;20129;-72
2022/06/09 12:49:46;;;;;;;22.55;18.02;;;;;;;22.55;70.44;98661.03;8468738;27;20046;-72
2022/06/09 12:54:02;;;;;;;23.33;16.40;;;;;;;23.09;70.25;98651.38;8530283;27;20051;-72
2022/06/09 12:58:06;;;;;;;21.45;15.45;;;;;;;24.03;66.35;98647.50;8497080;27;20126;-73
2022/06/09 13:02:27;;;;;;;18.08;13.70;;;;;;;24.39;64.35;98670.78;8530106;27;20604;-73
2022/06/09 13:06:39;;;;;;;19.35;13.93;;;;;;;24.42;63.09;98669.97;8469541;27;20450;-73
2022/06/09 13:10:43;;;;;;;16.23;13.57;;;;;;;24.88;61.51;98663.13;8513540;27;20057;-72
2022/06/09 13:14:46;;;;;;;20.77;13.20;;;;;;;25.08;61.86;98684.16;8517437;27;20088;-72
2022/06/09 13:18:53;;;;;;;19.65;15.98;;;;;;;24.75;61.70;98688.50;8515550;27;20054;-74
2022/06/09 13:22:57;;;;;;;20.25;14.23;;;;;;;24.07;63.42;98684.09;8460373;27;20054;-73
2022/06/09 13:27:06;;;;;;;15.65;13.63;;;;;;;23.66;64.38;98684.84;8501590;27;20404;-74
2022/06/09 13:31:26;;;;;;;18.73;14.02;;;;;;;23.36;65.10;98687.41;8496483;27;20546;-74
2022/06/09 13:35:37;;;;;;;20.60;15.20;;;;;;;23.28;66.17;98696.88;8529738;27;20138;-73
2022/06/09 13:39:45;;;;;;;19.33;14.65;;;;;;;23.40;65.64;98696.41;8521866;27;20136;-74
2022/06/09 13:43:53;;;;;;;16.20;13.82;;;;;;;23.28;65.42;98702.41;8530395;27;20053;-73
2022/06/09 13:48:12;;;;;;;15.57;13.18;;;;;;;23.15;66.34;98689.09;8512019;27;20042;-73
2022/06/09 13:52:30;;;;;;;16.70;13.63;;;;;;;23.25;65.65;98692.19;8513504;27;20446;-72
2022/06/09 13:56:31;;;;;;;18.45;13.55;;;;;;;23.36;65.46;98687.41;8508657;27;20073;-72
2022/06/09 14:00:42;;;;;;;16.02;12.68;;;;;;;23.48;66.04;98692.44;8523982;27;20046;-73
2022/06/09 14:04:43;;;;;;;14.15;12.23;;;;;;;23.50;66.15;98693.63;8473748;27;20520;-73
2022/06/09 14:09:04;;;;;;;14.35;12.10;;;;;;;23.54;66.84;98710.13;8471471;27;20038;-73
2022/06/09 14:13:05;;;;;;;14.93;12.73;;;;;;;23.28;66.56;98716.16;8432374;28;20044;-73
2022/06/09 14:17:07;;;;;;;19.02;10.98;;;;;;;23.13;65.97;98719.00;8453635;28;20043;-74
2022/06/09 14:21:09;;;;;;;12.05;10.25;;;;;;;23.19;65.16;98715.84;8425405;28;20119;-72
2022/06/09 14:25:13;;;;;;;11.55;8.85;;;;;;;23.56;62.68;98713.28;8458445;28;20071;-73
2022/06/09 14:29:16;;;;;;;12.77;8.30;;;;;;;23.61;62.12;98712.84;8460293;28;20044;-74
2022/06/09 14:33:17;;;;;;;9.63;7.75;;;;;;;23.55;61.17;98717.22;8459734;28;20051;-73
2022/06/09 14:37:18;;;;;;;8.77;7.05;;;;;;;23.23;61.54;98719.34;8457575;28;20378;-73
2022/06/09 14:41:19;;;;;;;9.60;6.82;;;;;;;23.08;61.44;98722.19;8458978;27;20054;-73
2022/06/09 14:45:20;;;;;;;9.07;6.47;;;;;;;23.04;60.64;98732.44;8527185;27;20043;-74
2022/06/09 14:49:22;;;;;;;9.65;6.80;;;;;;;22.87;62.38;98733.28;8516880;27;20134;-73
2022/06/09 14:53:24;;;;;;;8.68;6.30;;;;;;;22.73;63.70;98733.34;8519742;27;20055;-72
2022/06/09 14:57:25;;;;;;;9.40;6.68;;;;;;;22.68;63.93;98736.50;8529116;27;20043;-74
2022/06/09 15:01:26;;;;;;;9.30;7.18;;;;;;;22.68;64.06;98742.00;8509874;27;20043;-73
2022/06/09 15:05:29;;;;;;;7.47;6.50;;;;;;;22.62;63.55;98738.06;8516826;27;20047;-74
2022/06/09 15:09:30;;;;;;;7.75;6.35;;;;;;;22.63;63.46;98739.66;8492294;27;20222;-73
2022/06/09 15:13:31;;;;;;;9.38;6.57;;;;;;;22.64;62.64;98741.19;8479105;27;20606;-72
2022/06/09 15:17:32;;;;;;;8.48;6.97;;;;;;;22.46;62.24;98734.97;8522414;27;20047;-72
2022/06/09 15:21:34;;;;;;;8.80;7.35;;;;;;;22.46;62.97;98734.97;8489808;27;20039;-73
2022/06/09 15:25:38;;;;;;;10.45;7.53;;;;;;;22.63;63.17;98739.66;8489234;27;20504;-73
2022/06/09 15:29:42;;;;;;;10.73;8.40;;;;;;;23.31;62.44;98729.16;8524307;27;20041;-72
2022/06/09 15:33:43;;;;;;;9.85;8.27;;;;;;;23.63;61.05;98732.53;8479227;27;20085;-76
2022/06/09 15:37:45;;;;;;;9.68;8.23;;;;;;;23.86;60.88;98727.22;8520953;27;20058;-73
2022/06/09 15:41:46;;;;;;;10.93;9.48;;;;;;;24.00;61.34;98742.88;8519288;27;20479;-73
2022/06/09 15:45:49;;;;;;;12.57;9.85;;;;;;;24.26;61.44;98744.25;8532017;27;20051;-73
2022/06/09 15:49:50;;;;;;;14.82;10.90;;;;;;;24.15;62.64;98771.13;8506073;27;20053;-73
2022/06/09 15:53:51;;;;;;;14.55;10.60;;;;;;;23.94;63.96;98783.91;8501410;27;20496;-74
2022/06/09 15:57:52;;;;;;;16.33;10.80;;;;;;;23.68;64.67;98776.22;8511927;27;20050;-73
2022/06/09 16:02:08;;;;;;;13.07;10.85;;;;;;;23.55;65.65;98795.19;8524436;27;20053;-73
2022/06/09 16:06:11;;;;;;;15.05;10.30;;;;;;;23.46;65.38;98802.31;8524325;27;20524;-74
2022/06/09 16:10:17;;;;;;;12.88;9.77;;;;;;;23.21;66.44;98804.38;8509752;27;20047;-74
2022/06/09 16:14:18;;;;;;;11.63;9.35;;;;;;;23.04;67.30;98815.06;8527780;27;20412;-73
2022/06/09 16:18:21;;;;;;;12.48;9.98;;;;;;;22.86;68.10;98828.09;8514594;27;20054;-74
2022/06/09 16:22:24;;;;;;;14.48;9.40;;;;;;;22.73;68.74;98837.97;8521978;27;20078;-74
2022/06/09 16:26:26;;;;;;;11.35;8.00;;;;;;;22.57;69.21;98835.59;8482655;27;20491;-73
2022/06/09 16:30:28;;;;;;;8.38;7.30;;;;;;;22.39;69.56;98840.31;8526766;27;20123;-73
2022/06/09 16:34:29;;;;;;;9.35;7.45;;;;;;;22.31;69.70;98845.00;8528461;27;20053;-73
2022/06/09 16:38:30;;;;;;;9.95;7.97;;;;;;;22.22;69.97;98847.38;8529006;27;20480;-73
2022/06/09 16:42:31;;;;;;;9.00;7.55;;;;;;;22.13;69.97;98848.94;8528189;27;20069;-74
2022/06/09 16:46:32;;;;;;;11.20;7.65;;;;;;;21.99;70.40;98855.22;8521306;27;20039;-73
2022/06/09 16:50:33;;;;;;;11.30;8.27;;;;;;;21.92;70.61;98860.66;8510342;27;20043;-74
2022/06/09 16:54:35;;;;;;;10.10;8.32;;;;;;;21.93;70.83;98862.25;8508781;27;20050;-73
2022/06/09 16:58:37;;;;;;;10.20;7.68;;;;;;;21.96;70.67;98867.00;8515781;27;20050;-72
2022/06/09 17:02:38;;;;;;;11.57;8.45;;;;;;;21.95;71.06;98868.16;8530199;27;20125;-72
2022/06/09 17:06:39;;;;;;;12.88;9.15;;;;;;;21.89;71.21;98862.22;8529901;27;20046;-73
2022/06/09 17:10:42;;;;;;;11.50;9.13;;;;;;;21.94;71.30;98858.34;8475467;27;20076;-74
2022/06/09 17:14:44;;;;;;;11.73;8.75;;;;;;;21.94;71.50;98858.34;8486220;27;20518;-73
2022/06/09 17:18:46;;;;;;;9.48;7.47;;;;;;;21.98;71.30;98861.91;8498411;27;20055;-73
2022/06/09 17:22:47;;;;;;;10.27;7.70;;;;;;;22.12;70.76;98869.38;8513463;27;20460;-72
2022/06/09 17:26:49;;;;;;;8.38;7.47;;;;;;;22.31;70.48;98878.03;8469622;27;20104;-73
2022/06/09 17:30:51;;;;;;;8.15;6.93;;;;;;;22.33;70.36;98875.69;8524673;27;20464;-73
2022/06/09 17:34:54;;;;;;;8.55;7.35;;;;;;;22.31;70.29;98872.53;8502667;27;20119;-73
2022/06/09 17:38:56;;;;;;;10.50;7.93;;;;;;;22.28;69.69;98889.81;8512165;27;20051;-73
2022/06/09 17:42:59;;;;;;;10.30;8.05;;;;;;;22.04;70.24;98901.59;8500122;27;20138;-73
2022/06/09 17:47:00;;;;;;;9.95;8.02;;;;;;;22.02;70.25;98903.94;8522454;27;20138;-72
2022/06/09 17:51:02;;;;;;;11.10;8.18;;;;;;;21.83;70.72;98907.00;8468838;27;20476;-71
2022/06/09 17:55:05;;;;;;;10.65;8.20;;;;;;;21.71;70.93;98910.88;8503085;27;20137;-73
2022/06/09 17:59:08;;;;;;;12.95;9.40;;;;;;;21.63;70.94;98913.97;8530997;27;20187;-72
2022/06/09 18:03:10;;;;;;;12.43;9.05;;;;;;;21.53;71.69;98925.69;8515938;27;20059;-73
2022/06/09 18:07:11;;;;;;;13.18;7.88;;;;;;;21.33;72.10;98927.97;8531604;27;20411;-72
2022/06/09 18:11:15;;;;;;;10.32;7.47;;;;;;;21.14;72.81;98931.78;8535597;27;20130;-73
2022/06/09 18:15:16;;;;;;;13.02;7.43;;;;;;;21.03;73.16;98928.16;8509502;27;20051;-73
2022/06/09 18:19:17;;;;;;;11.90;7.22;;;;;;;20.95;73.50;98929.25;8518182;27;20058;-73
2022/06/09 18:23:19;;;;;;;11.20;8.00;;;;;;;20.86;73.62;98931.56;8517457;27;20071;-73
2022/06/09 18:27:20;;;;;;;10.85;6.70;;;;;;;20.79;73.98;98937.00;8517881;27;20492;-73
2022/06/09 18:31:22;;;;;;;7.13;6.03;;;;;;;20.76;73.93;98935.00;8524683;27;20061;-72
2022/06/09 18:35:23;;;;;;;12.77;7.05;;;;;;;20.70;74.17;98953.00;8524639;27;20051;-73
2022/06/09 18:39:24;;;;;;;9.98;6.10;;;;;;;20.60;74.41;98962.72;8461147;27;20054;-74
2022/06/09 18:43:25;;;;;;;8.10;5.65;;;;;;;20.52;74.52;98967.34;8490862;27;20046;-74
2022/06/09 18:47:28;;;;;;;12.07;6.20;;;;;;;20.43;74.88;98974.31;8528009;27;20116;-73
2022/06/09 18:51:29;;;;;;;8.43;6.47;;;;;;;20.41;74.89;98982.91;8510185;27;20047;-74
2022/06/09 18:55:31;;;;;;;10.98;6.82;;;;;;;20.34;75.52;98988.34;8528709;27;20095;-74
2022/06/09 18:59:33;;;;;;;12.95;7.63;;;;;;;20.32;76.16;98979.69;8526207;27;20099;-73
2022/06/09 19:03:35;;;;;;;8.45;6.63;;;;;;;20.31;76.40;98989.06;8493105;27;20035;-72
2022/06/09 19:07:37;;;;;;;12.13;8.75;;;;;;;20.30;76.87;98986.69;8478094;27;20069;-73
2022/06/09 19:11:39;;;;;;;10.48;8.13;;;;;;;20.16;77.52;98976.34;8532941;27;20481;-72
2022/06/09 19:15:41;;;;;;;10.10;8.38;;;;;;;20.08;77.92;98985.66;8525669;27;20149;-73
2022/06/09 19:19:43;;;;;;;10.10;7.88;;;;;;;20.05;78.26;98991.88;8528058;27;20053;-72
2022/06/09 19:23:45;;;;;;;10.70;7.85;;;;;;;20.01;78.37;99000.06;8527223;27;20381;-73